sensor_id;sensor_type;location;lat;lon;timestamp;P1;durP1;ratioP1;P2;durP2;ratioP2
60655;SDS011;46477;53.616;10.064;2022-08-20T00:00:40;10.68;;;8.60;;
60655;SDS011;46477;53.616;10.064;2022-08-20T00:03:19;11.15;;;9.32;;
60655;SDS011;46477;53.616;10.064;2022-08-20T00:05:58;9.50;;;7.95;;
60655;SDS011;46477;53.616;10.064;2022-08-20T00:08:29;13.57;;;9.68;;
60655;SDS011;46477;53.616;10.064;2022-08-20T00:10:55;10.75;;;8.77;;
60655;SDS011;46477;53.616;10.064;2022-08-20T00:13:24;10.48;;;7.88;;
60655;SDS011;46477;53.616;10.064;2022-08-20T00:15:53;10.43;;;8.52;;
60655;SDS011;46477;53.616;10.064;2022-08-20T00:18:19;10.73;;;8.40;;
60655;SDS011;46477;53.616;10.064;2022-08-20T00:20:46;9.57;;;7.88;;
60655;SDS011;46477;53.616;10.064;2022-08-20T00:23:14;10.40;;;7.45;;
60655;SDS011;46477;53.616;10.064;2022-08-20T00:25:41;8.82;;;7.45;;
60655;SDS011;46477;53.616;10.064;2022-08-20T00:28:08;10.32;;;8.02;;
60655;SDS011;46477;53.616;10.064;2022-08-20T00:30:34;9.57;;;7.53;;
60655;SDS011;46477;53.616;10.064;2022-08-20T00:33:02;9.35;;;7.63;;
60655;SDS011;46477;53.616;10.064;2022-08-20T00:35:32;9.60;;;7.53;;
60655;SDS011;46477;53.616;10.064;2022-08-20T00:38:00;10.07;;;7.97;;
60655;SDS011;46477;53.616;10.064;2022-08-20T00:40:29;9.73;;;7.38;;
60655;SDS011;46477;53.616;10.064;2022-08-20T00:42:59;9.15;;;7.53;;
60655;SDS011;46477;53.616;10.064;2022-08-20T00:45:27;9.18;;;6.95;;
60655;SDS011;46477;53.616;10.064;2022-08-20T00:47:54;8.85;;;7.03;;
60655;SDS011;46477;53.616;10.064;2022-08-20T00:50:21;8.00;;;6.75;;
60655;SDS011;46477;53.616;10.064;2022-08-20T00:53:07;8.90;;;7.15;;
60655;SDS011;46477;53.616;10.064;2022-08-20T00:55:33;8.48;;;6.53;;
60655;SDS011;46477;53.616;10.064;2022-08-20T00:58:02;9.35;;;6.97;;
60655;SDS011;46477;53.616;10.064;2022-08-20T01:00:43;9.30;;;7.30;;
60655;SDS011;46477;53.616;10.064;2022-08-20T01:03:10;8.70;;;6.53;;
60655;SDS011;46477;53.616;10.064;2022-08-20T01:05:39;8.30;;;6.22;;
60655;SDS011;46477;53.616;10.064;2022-08-20T01:08:08;8.18;;;6.53;;
60655;SDS011;46477;53.616;10.064;2022-08-20T01:10:39;9.02;;;7.30;;
60655;SDS011;46477;53.616;10.064;2022-08-20T01:13:10;8.38;;;6.40;;
60655;SDS011;46477;53.616;10.064;2022-08-20T01:15:39;9.32;;;6.22;;
60655;SDS011;46477;53.616;10.064;2022-08-20T01:18:09;9.02;;;6.25;;
60655;SDS011;46477;53.616;10.064;2022-08-20T01:20:42;8.55;;;6.07;;
60655;SDS011;46477;53.616;10.064;2022-08-20T01:23:20;9.02;;;6.18;;
60655;SDS011;46477;53.616;10.064;2022-08-20T01:26:00;9.73;;;6.85;;
60655;SDS011;46477;53.616;10.064;2022-08-20T01:28:34;9.35;;;5.93;;
60655;SDS011;46477;53.616;10.064;2022-08-20T01:33:30;9.05;;;6.40;;
60655;SDS011;46477;53.616;10.064;2022-08-20T01:35:56;8.35;;;6.80;;
60655;SDS011;46477;53.616;10.064;2022-08-20T01:38:21;8.73;;;6.55;;
60655;SDS011;46477;53.616;10.064;2022-08-20T01:40:54;8.50;;;6.82;;
60655;SDS011;46477;53.616;10.064;2022-08-20T01:43:48;9.45;;;6.55;;
60655;SDS011;46477;53.616;10.064;2022-08-20T01:46:20;8.85;;;5.90;;
60655;SDS011;46477;53.616;10.064;2022-08-20T01:48:47;7.80;;;6.32;;
60655;SDS011;46477;53.616;10.064;2022-08-20T01:51:14;8.18;;;7.07;;
60655;SDS011;46477;53.616;10.064;2022-08-20T01:53:44;9.02;;;6.60;;
60655;SDS011;46477;53.616;10.064;2022-08-20T01:56:13;8.02;;;6.18;;
60655;SDS011;46477;53.616;10.064;2022-08-20T01:58:42;8.38;;;6.32;;
60655;SDS011;46477;53.616;10.064;2022-08-20T02:01:24;7.45;;;5.47;;
60655;SDS011;46477;53.616;10.064;2022-08-20T02:03:57;8.02;;;6.00;;
60655;SDS011;46477;53.616;10.064;2022-08-20T02:06:25;7.00;;;5.05;;
60655;SDS011;46477;53.616;10.064;2022-08-20T02:08:52;6.65;;;4.72;;
60655;SDS011;46477;53.616;10.064;2022-08-20T02:11:24;7.17;;;4.87;;
60655;SDS011;46477;53.616;10.064;2022-08-20T02:13:50;6.93;;;4.65;;
60655;SDS011;46477;53.616;10.064;2022-08-20T02:16:18;7.70;;;5.00;;
60655;SDS011;46477;53.616;10.064;2022-08-20T02:18:45;6.68;;;4.88;;
60655;SDS011;46477;53.616;10.064;2022-08-20T02:21:12;7.72;;;4.95;;
60655;SDS011;46477;53.616;10.064;2022-08-20T02:23:38;6.78;;;4.88;;
60655;SDS011;46477;53.616;10.064;2022-08-20T02:26:03;6.97;;;4.53;;
60655;SDS011;46477;53.616;10.064;2022-08-20T02:28:31;6.53;;;4.07;;
60655;SDS011;46477;53.616;10.064;2022-08-20T02:30:57;5.53;;;3.72;;
60655;SDS011;46477;53.616;10.064;2022-08-20T02:33:24;6.15;;;4.75;;
60655;SDS011;46477;53.616;10.064;2022-08-20T02:35:50;6.85;;;4.22;;
60655;SDS011;46477;53.616;10.064;2022-08-20T02:38:17;6.20;;;4.03;;
60655;SDS011;46477;53.616;10.064;2022-08-20T02:40:44;5.78;;;3.80;;
60655;SDS011;46477;53.616;10.064;2022-08-20T02:43:10;6.45;;;3.90;;
60655;SDS011;46477;53.616;10.064;2022-08-20T02:45:36;6.22;;;3.97;;
60655;SDS011;46477;53.616;10.064;2022-08-20T02:48:07;6.22;;;4.32;;
60655;SDS011;46477;53.616;10.064;2022-08-20T02:50:34;5.93;;;4.22;;
60655;SDS011;46477;53.616;10.064;2022-08-20T02:52:59;6.22;;;4.60;;
60655;SDS011;46477;53.616;10.064;2022-08-20T02:55:24;5.90;;;3.65;;
60655;SDS011;46477;53.616;10.064;2022-08-20T02:57:51;6.28;;;3.60;;
60655;SDS011;46477;53.616;10.064;2022-08-20T03:00:18;5.80;;;3.95;;
60655;SDS011;46477;53.616;10.064;2022-08-20T03:02:45;5.70;;;3.90;;
60655;SDS011;46477;53.616;10.064;2022-08-20T03:05:11;5.82;;;3.65;;
60655;SDS011;46477;53.616;10.064;2022-08-20T03:07:41;6.45;;;4.20;;
60655;SDS011;46477;53.616;10.064;2022-08-20T03:10:11;5.70;;;4.00;;
60655;SDS011;46477;53.616;10.064;2022-08-20T03:12:38;6.70;;;4.28;;
60655;SDS011;46477;53.616;10.064;2022-08-20T03:15:05;7.65;;;4.13;;
60655;SDS011;46477;53.616;10.064;2022-08-20T03:17:32;6.57;;;4.32;;
60655;SDS011;46477;53.616;10.064;2022-08-20T03:19:58;5.97;;;4.22;;
60655;SDS011;46477;53.616;10.064;2022-08-20T03:22:24;6.72;;;4.78;;
60655;SDS011;46477;53.616;10.064;2022-08-20T03:24:49;7.22;;;4.50;;
60655;SDS011;46477;53.616;10.064;2022-08-20T03:27:14;7.53;;;4.57;;
60655;SDS011;46477;53.616;10.064;2022-08-20T03:29:40;7.55;;;4.82;;
60655;SDS011;46477;53.616;10.064;2022-08-20T03:32:05;7.88;;;5.45;;
60655;SDS011;46477;53.616;10.064;2022-08-20T03:34:30;7.50;;;4.60;;
60655;SDS011;46477;53.616;10.064;2022-08-20T03:36:56;7.82;;;4.97;;
60655;SDS011;46477;53.616;10.064;2022-08-20T03:39:21;7.10;;;5.25;;
60655;SDS011;46477;53.616;10.064;2022-08-20T03:41:46;7.60;;;5.20;;
60655;SDS011;46477;53.616;10.064;2022-08-20T03:44:12;7.35;;;5.25;;
60655;SDS011;46477;53.616;10.064;2022-08-20T03:46:37;7.32;;;5.05;;
60655;SDS011;46477;53.616;10.064;2022-08-20T03:49:04;7.15;;;5.05;;
60655;SDS011;46477;53.616;10.064;2022-08-20T03:51:30;7.38;;;5.13;;
60655;SDS011;46477;53.616;10.064;2022-08-20T03:53:56;9.32;;;5.80;;
60655;SDS011;46477;53.616;10.064;2022-08-20T03:56:22;9.48;;;6.78;;
60655;SDS011;46477;53.616;10.064;2022-08-20T03:58:47;10.38;;;6.70;;
60655;SDS011;46477;53.616;10.064;2022-08-20T04:01:13;8.30;;;6.07;;
60655;SDS011;46477;53.616;10.064;2022-08-20T04:03:39;9.57;;;6.72;;
60655;SDS011;46477;53.616;10.064;2022-08-20T04:06:05;8.00;;;5.85;;
60655;SDS011;46477;53.616;10.064;2022-08-20T04:08:31;9.60;;;6.32;;
60655;SDS011;46477;53.616;10.064;2022-08-20T04:10:56;8.93;;;6.20;;
60655;SDS011;46477;53.616;10.064;2022-08-20T04:13:24;8.95;;;6.55;;
60655;SDS011;46477;53.616;10.064;2022-08-20T04:15:51;9.65;;;6.88;;
60655;SDS011;46477;53.616;10.064;2022-08-20T04:18:19;10.77;;;7.28;;
60655;SDS011;46477;53.616;10.064;2022-08-20T04:20:48;8.95;;;6.07;;
60655;SDS011;46477;53.616;10.064;2022-08-20T04:23:14;10.65;;;6.30;;
60655;SDS011;46477;53.616;10.064;2022-08-20T04:25:40;8.68;;;6.40;;
60655;SDS011;46477;53.616;10.064;2022-08-20T04:28:08;9.70;;;6.03;;
60655;SDS011;46477;53.616;10.064;2022-08-20T04:30:40;8.93;;;6.68;;
60655;SDS011;46477;53.616;10.064;2022-08-20T04:33:06;8.73;;;6.25;;
60655;SDS011;46477;53.616;10.064;2022-08-20T04:35:32;11.00;;;6.70;;
60655;SDS011;46477;53.616;10.064;2022-08-20T04:38:04;9.15;;;6.68;;
60655;SDS011;46477;53.616;10.064;2022-08-20T04:40:32;9.05;;;5.78;;
60655;SDS011;46477;53.616;10.064;2022-08-20T04:43:17;9.68;;;6.75;;
60655;SDS011;46477;53.616;10.064;2022-08-20T04:45:47;8.90;;;5.97;;
60655;SDS011;46477;53.616;10.064;2022-08-20T04:48:13;8.70;;;6.20;;
60655;SDS011;46477;53.616;10.064;2022-08-20T04:50:40;9.10;;;6.82;;
60655;SDS011;46477;53.616;10.064;2022-08-20T04:53:08;9.63;;;6.82;;
60655;SDS011;46477;53.616;10.064;2022-08-20T04:55:36;9.43;;;6.25;;
60655;SDS011;46477;53.616;10.064;2022-08-20T04:58:06;8.60;;;5.68;;
60655;SDS011;46477;53.616;10.064;2022-08-20T05:00:35;9.55;;;7.15;;
60655;SDS011;46477;53.616;10.064;2022-08-20T05:03:01;9.18;;;6.40;;
60655;SDS011;46477;53.616;10.064;2022-08-20T05:05:27;9.95;;;6.82;;
60655;SDS011;46477;53.616;10.064;2022-08-20T05:07:53;11.07;;;7.20;;
60655;SDS011;46477;53.616;10.064;2022-08-20T05:10:19;11.52;;;8.05;;
60655;SDS011;46477;53.616;10.064;2022-08-20T05:12:47;11.68;;;8.70;;
60655;SDS011;46477;53.616;10.064;2022-08-20T05:15:13;10.40;;;7.40;;
60655;SDS011;46477;53.616;10.064;2022-08-20T05:17:39;10.98;;;6.90;;
60655;SDS011;46477;53.616;10.064;2022-08-20T05:20:06;9.25;;;6.10;;
60655;SDS011;46477;53.616;10.064;2022-08-20T05:22:33;10.73;;;6.13;;
60655;SDS011;46477;53.616;10.064;2022-08-20T05:24:58;9.35;;;6.13;;
60655;SDS011;46477;53.616;10.064;2022-08-20T05:27:26;9.27;;;7.07;;
60655;SDS011;46477;53.616;10.064;2022-08-20T05:29:53;11.23;;;6.88;;
60655;SDS011;46477;53.616;10.064;2022-08-20T05:32:20;11.73;;;7.57;;
60655;SDS011;46477;53.616;10.064;2022-08-20T05:34:46;10.00;;;6.53;;
60655;SDS011;46477;53.616;10.064;2022-08-20T05:37:12;12.93;;;9.48;;
60655;SDS011;46477;53.616;10.064;2022-08-20T05:39:37;10.98;;;7.68;;
60655;SDS011;46477;53.616;10.064;2022-08-20T05:42:03;12.77;;;8.77;;
60655;SDS011;46477;53.616;10.064;2022-08-20T05:44:29;10.07;;;6.78;;
60655;SDS011;46477;53.616;10.064;2022-08-20T05:46:55;10.65;;;7.45;;
60655;SDS011;46477;53.616;10.064;2022-08-20T05:49:20;10.45;;;8.27;;
60655;SDS011;46477;53.616;10.064;2022-08-20T05:51:46;10.43;;;7.10;;
60655;SDS011;46477;53.616;10.064;2022-08-20T05:54:13;10.43;;;6.45;;
60655;SDS011;46477;53.616;10.064;2022-08-20T05:56:39;10.02;;;6.75;;
60655;SDS011;46477;53.616;10.064;2022-08-20T05:59:06;11.00;;;7.13;;
60655;SDS011;46477;53.616;10.064;2022-08-20T06:01:33;10.38;;;6.95;;
60655;SDS011;46477;53.616;10.064;2022-08-20T06:04:01;9.15;;;6.55;;
60655;SDS011;46477;53.616;10.064;2022-08-20T06:06:45;9.68;;;6.68;;
60655;SDS011;46477;53.616;10.064;2022-08-20T06:09:11;8.32;;;5.82;;
60655;SDS011;46477;53.616;10.064;2022-08-20T06:11:36;8.45;;;5.47;;
60655;SDS011;46477;53.616;10.064;2022-08-20T06:14:02;13.40;;;7.28;;
60655;SDS011;46477;53.616;10.064;2022-08-20T06:16:28;10.65;;;6.85;;
60655;SDS011;46477;53.616;10.064;2022-08-20T06:18:53;9.68;;;6.72;;
60655;SDS011;46477;53.616;10.064;2022-08-20T06:21:19;10.65;;;7.05;;
60655;SDS011;46477;53.616;10.064;2022-08-20T06:23:44;9.32;;;6.65;;
60655;SDS011;46477;53.616;10.064;2022-08-20T06:26:09;8.35;;;5.65;;
60655;SDS011;46477;53.616;10.064;2022-08-20T06:28:35;10.05;;;6.70;;
60655;SDS011;46477;53.616;10.064;2022-08-20T06:31:00;12.85;;;8.02;;
60655;SDS011;46477;53.616;10.064;2022-08-20T06:33:27;8.60;;;6.28;;
60655;SDS011;46477;53.616;10.064;2022-08-20T06:35:52;11.48;;;8.82;;
60655;SDS011;46477;53.616;10.064;2022-08-20T06:38:18;10.38;;;6.13;;
60655;SDS011;46477;53.616;10.064;2022-08-20T06:40:44;14.55;;;7.82;;
60655;SDS011;46477;53.616;10.064;2022-08-20T06:43:10;8.55;;;6.10;;
60655;SDS011;46477;53.616;10.064;2022-08-20T06:45:36;9.45;;;6.45;;
60655;SDS011;46477;53.616;10.064;2022-08-20T06:48:05;8.40;;;5.88;;
60655;SDS011;46477;53.616;10.064;2022-08-20T06:50:34;8.30;;;5.38;;
60655;SDS011;46477;53.616;10.064;2022-08-20T06:53:04;8.10;;;5.07;;
60655;SDS011;46477;53.616;10.064;2022-08-20T06:55:30;7.65;;;5.13;;
60655;SDS011;46477;53.616;10.064;2022-08-20T06:58:01;7.90;;;5.63;;
60655;SDS011;46477;53.616;10.064;2022-08-20T07:00:29;10.03;;;6.90;;
60655;SDS011;46477;53.616;10.064;2022-08-20T07:02:57;9.40;;;6.85;;
60655;SDS011;46477;53.616;10.064;2022-08-20T07:05:25;8.02;;;5.25;;
60655;SDS011;46477;53.616;10.064;2022-08-20T07:07:54;8.63;;;5.70;;
60655;SDS011;46477;53.616;10.064;2022-08-20T07:10:20;8.80;;;5.50;;
60655;SDS011;46477;53.616;10.064;2022-08-20T07:12:47;8.02;;;6.03;;
60655;SDS011;46477;53.616;10.064;2022-08-20T07:15:14;8.13;;;5.47;;
60655;SDS011;46477;53.616;10.064;2022-08-20T07:17:40;8.18;;;4.80;;
60655;SDS011;46477;53.616;10.064;2022-08-20T07:20:06;6.05;;;3.88;;
60655;SDS011;46477;53.616;10.064;2022-08-20T07:22:34;8.38;;;5.80;;
60655;SDS011;46477;53.616;10.064;2022-08-20T07:25:01;9.00;;;6.57;;
60655;SDS011;46477;53.616;10.064;2022-08-20T07:27:31;8.75;;;5.75;;
60655;SDS011;46477;53.616;10.064;2022-08-20T07:29:57;8.55;;;6.13;;
60655;SDS011;46477;53.616;10.064;2022-08-20T07:32:41;12.93;;;5.30;;
60655;SDS011;46477;53.616;10.064;2022-08-20T07:35:09;6.28;;;3.42;;
60655;SDS011;46477;53.616;10.064;2022-08-20T07:37:40;10.18;;;3.83;;
60655;SDS011;46477;53.616;10.064;2022-08-20T07:40:10;7.32;;;3.70;;
60655;SDS011;46477;53.616;10.064;2022-08-20T07:42:38;8.55;;;4.95;;
60655;SDS011;46477;53.616;10.064;2022-08-20T07:45:11;5.90;;;3.13;;
60655;SDS011;46477;53.616;10.064;2022-08-20T07:47:43;6.45;;;3.30;;
60655;SDS011;46477;53.616;10.064;2022-08-20T07:50:10;5.25;;;3.03;;
60655;SDS011;46477;53.616;10.064;2022-08-20T07:52:37;4.70;;;2.75;;
60655;SDS011;46477;53.616;10.064;2022-08-20T07:55:07;6.28;;;3.85;;
60655;SDS011;46477;53.616;10.064;2022-08-20T07:57:35;5.72;;;3.10;;
60655;SDS011;46477;53.616;10.064;2022-08-20T08:00:02;4.95;;;2.70;;
60655;SDS011;46477;53.616;10.064;2022-08-20T08:02:28;5.32;;;2.78;;
60655;SDS011;46477;53.616;10.064;2022-08-20T08:04:53;5.97;;;3.78;;
60655;SDS011;46477;53.616;10.064;2022-08-20T08:07:19;4.95;;;3.30;;
60655;SDS011;46477;53.616;10.064;2022-08-20T08:09:46;6.18;;;3.53;;
60655;SDS011;46477;53.616;10.064;2022-08-20T08:12:12;6.82;;;2.92;;
60655;SDS011;46477;53.616;10.064;2022-08-20T08:14:39;5.43;;;2.60;;
60655;SDS011;46477;53.616;10.064;2022-08-20T08:17:09;5.95;;;2.47;;
60655;SDS011;46477;53.616;10.064;2022-08-20T08:19:37;3.97;;;2.10;;
60655;SDS011;46477;53.616;10.064;2022-08-20T08:22:05;5.13;;;2.65;;
60655;SDS011;46477;53.616;10.064;2022-08-20T08:24:35;5.82;;;3.20;;
60655;SDS011;46477;53.616;10.064;2022-08-20T08:27:01;4.40;;;2.25;;
60655;SDS011;46477;53.616;10.064;2022-08-20T08:29:27;6.28;;;2.40;;
60655;SDS011;46477;53.616;10.064;2022-08-20T08:31:53;4.60;;;2.30;;
60655;SDS011;46477;53.616;10.064;2022-08-20T08:34:18;4.90;;;2.15;;
60655;SDS011;46477;53.616;10.064;2022-08-20T08:39:33;4.10;;;2.10;;
60655;SDS011;46477;53.616;10.064;2022-08-20T08:41:59;6.70;;;3.42;;
60655;SDS011;46477;53.616;10.064;2022-08-20T08:44:28;5.32;;;2.55;;
60655;SDS011;46477;53.616;10.064;2022-08-20T08:47:00;5.43;;;2.28;;
60655;SDS011;46477;53.616;10.064;2022-08-20T08:49:30;4.45;;;2.20;;
60655;SDS011;46477;53.616;10.064;2022-08-20T08:52:00;4.53;;;2.03;;
60655;SDS011;46477;53.616;10.064;2022-08-20T08:54:29;5.38;;;2.40;;
60655;SDS011;46477;53.616;10.064;2022-08-20T08:57:09;5.22;;;2.42;;
60655;SDS011;46477;53.616;10.064;2022-08-20T08:59:34;6.30;;;2.35;;
60655;SDS011;46477;53.616;10.064;2022-08-20T09:02:00;3.67;;;1.60;;
60655;SDS011;46477;53.616;10.064;2022-08-20T09:04:33;5.85;;;1.98;;
60655;SDS011;46477;53.616;10.064;2022-08-20T09:07:02;4.90;;;1.80;;
60655;SDS011;46477;53.616;10.064;2022-08-20T09:09:31;4.60;;;1.60;;
60655;SDS011;46477;53.616;10.064;2022-08-20T09:12:05;2.65;;;1.40;;
60655;SDS011;46477;53.616;10.064;2022-08-20T09:14:31;4.57;;;2.00;;
60655;SDS011;46477;53.616;10.064;2022-08-20T09:16:56;3.72;;;1.77;;
60655;SDS011;46477;53.616;10.064;2022-08-20T09:19:22;3.15;;;1.30;;
60655;SDS011;46477;53.616;10.064;2022-08-20T09:21:47;5.15;;;2.03;;
60655;SDS011;46477;53.616;10.064;2022-08-20T09:24:13;4.78;;;2.10;;
60655;SDS011;46477;53.616;10.064;2022-08-20T09:26:38;4.43;;;1.88;;
60655;SDS011;46477;53.616;10.064;2022-08-20T09:29:04;3.92;;;1.92;;
60655;SDS011;46477;53.616;10.064;2022-08-20T09:31:29;3.90;;;1.60;;
60655;SDS011;46477;53.616;10.064;2022-08-20T09:33:55;5.40;;;1.95;;
60655;SDS011;46477;53.616;10.064;2022-08-20T09:36:20;3.22;;;1.48;;
60655;SDS011;46477;53.616;10.064;2022-08-20T09:38:46;3.42;;;1.60;;
60655;SDS011;46477;53.616;10.064;2022-08-20T09:41:11;4.30;;;1.63;;
60655;SDS011;46477;53.616;10.064;2022-08-20T09:43:36;4.18;;;2.20;;
60655;SDS011;46477;53.616;10.064;2022-08-20T09:46:02;5.18;;;1.90;;
60655;SDS011;46477;53.616;10.064;2022-08-20T09:48:27;7.15;;;2.50;;
60655;SDS011;46477;53.616;10.064;2022-08-20T09:50:53;5.82;;;2.13;;
60655;SDS011;46477;53.616;10.064;2022-08-20T09:53:18;4.82;;;2.05;;
60655;SDS011;46477;53.616;10.064;2022-08-20T09:55:47;5.72;;;2.30;;
60655;SDS011;46477;53.616;10.064;2022-08-20T09:58:20;6.88;;;2.03;;
60655;SDS011;46477;53.616;10.064;2022-08-20T10:00:50;6.55;;;2.75;;
60655;SDS011;46477;53.616;10.064;2022-08-20T10:03:15;4.13;;;1.70;;
60655;SDS011;46477;53.616;10.064;2022-08-20T10:05:41;3.83;;;1.65;;
60655;SDS011;46477;53.616;10.064;2022-08-20T10:08:07;7.07;;;2.05;;
60655;SDS011;46477;53.616;10.064;2022-08-20T10:10:35;5.00;;;1.90;;
60655;SDS011;46477;53.616;10.064;2022-08-20T10:13:00;4.68;;;1.88;;
60655;SDS011;46477;53.616;10.064;2022-08-20T10:15:27;4.80;;;1.80;;
60655;SDS011;46477;53.616;10.064;2022-08-20T10:18:01;7.20;;;2.00;;
60655;SDS011;46477;53.616;10.064;2022-08-20T10:20:31;4.68;;;1.45;;
60655;SDS011;46477;53.616;10.064;2022-08-20T10:22:58;4.95;;;2.03;;
60655;SDS011;46477;53.616;10.064;2022-08-20T10:25:40;7.00;;;1.58;;
60655;SDS011;46477;53.616;10.064;2022-08-20T10:28:07;6.75;;;1.83;;
60655;SDS011;46477;53.616;10.064;2022-08-20T10:30:33;3.22;;;1.38;;
60655;SDS011;46477;53.616;10.064;2022-08-20T10:32:59;5.15;;;1.80;;
60655;SDS011;46477;53.616;10.064;2022-08-20T10:35:24;4.30;;;1.67;;
60655;SDS011;46477;53.616;10.064;2022-08-20T10:37:50;9.70;;;2.20;;
60655;SDS011;46477;53.616;10.064;2022-08-20T10:40:16;5.78;;;1.83;;
60655;SDS011;46477;53.616;10.064;2022-08-20T10:42:41;4.68;;;1.60;;
60655;SDS011;46477;53.616;10.064;2022-08-20T10:45:12;4.78;;;1.90;;
60655;SDS011;46477;53.616;10.064;2022-08-20T10:47:39;4.85;;;1.67;;
60655;SDS011;46477;53.616;10.064;2022-08-20T10:50:06;6.30;;;2.30;;
60655;SDS011;46477;53.616;10.064;2022-08-20T10:52:34;4.20;;;1.90;;
60655;SDS011;46477;53.616;10.064;2022-08-20T10:55:00;6.35;;;2.13;;
60655;SDS011;46477;53.616;10.064;2022-08-20T10:57:28;6.53;;;1.75;;
60655;SDS011;46477;53.616;10.064;2022-08-20T10:59:55;3.15;;;1.50;;
60655;SDS011;46477;53.616;10.064;2022-08-20T11:02:22;4.95;;;1.63;;
60655;SDS011;46477;53.616;10.064;2022-08-20T11:04:49;4.75;;;1.77;;
60655;SDS011;46477;53.616;10.064;2022-08-20T11:07:25;4.35;;;2.20;;
60655;SDS011;46477;53.616;10.064;2022-08-20T11:09:53;7.72;;;2.55;;
60655;SDS011;46477;53.616;10.064;2022-08-20T11:12:20;4.75;;;2.17;;
60655;SDS011;46477;53.616;10.064;2022-08-20T11:14:46;5.45;;;1.60;;
60655;SDS011;46477;53.616;10.064;2022-08-20T11:17:18;4.10;;;1.58;;
60655;SDS011;46477;53.616;10.064;2022-08-20T11:22:12;5.63;;;1.70;;
60655;SDS011;46477;53.616;10.064;2022-08-20T11:24:38;5.57;;;2.30;;
60655;SDS011;46477;53.616;10.064;2022-08-20T11:27:06;5.63;;;1.80;;
60655;SDS011;46477;53.616;10.064;2022-08-20T11:29:36;5.38;;;2.08;;
60655;SDS011;46477;53.616;10.064;2022-08-20T11:32:02;2.85;;;1.25;;
60655;SDS011;46477;53.616;10.064;2022-08-20T11:34:29;4.00;;;1.50;;
60655;SDS011;46477;53.616;10.064;2022-08-20T11:36:55;4.35;;;1.73;;
60655;SDS011;46477;53.616;10.064;2022-08-20T11:39:21;7.47;;;1.67;;
60655;SDS011;46477;53.616;10.064;2022-08-20T11:41:46;6.90;;;2.05;;
60655;SDS011;46477;53.616;10.064;2022-08-20T11:44:12;3.88;;;1.70;;
60655;SDS011;46477;53.616;10.064;2022-08-20T11:46:39;5.22;;;1.67;;
60655;SDS011;46477;53.616;10.064;2022-08-20T11:49:04;8.88;;;2.03;;
60655;SDS011;46477;53.616;10.064;2022-08-20T11:51:30;5.70;;;1.75;;
60655;SDS011;46477;53.616;10.064;2022-08-20T11:53:55;4.75;;;1.27;;
60655;SDS011;46477;53.616;10.064;2022-08-20T11:56:21;5.55;;;1.55;;
60655;SDS011;46477;53.616;10.064;2022-08-20T11:58:46;3.80;;;1.50;;
60655;SDS011;46477;53.616;10.064;2022-08-20T12:01:12;6.30;;;1.80;;
60655;SDS011;46477;53.616;10.064;2022-08-20T12:03:37;5.75;;;1.92;;
60655;SDS011;46477;53.616;10.064;2022-08-20T12:06:03;4.93;;;1.42;;
60655;SDS011;46477;53.616;10.064;2022-08-20T12:08:28;4.80;;;1.30;;
60655;SDS011;46477;53.616;10.064;2022-08-20T12:10:58;5.63;;;1.60;;
60655;SDS011;46477;53.616;10.064;2022-08-20T12:13:25;9.25;;;2.67;;
60655;SDS011;46477;53.616;10.064;2022-08-20T12:15:53;2.00;;;1.00;;
60655;SDS011;46477;53.616;10.064;2022-08-20T12:18:19;4.93;;;2.05;;
60655;SDS011;46477;53.616;10.064;2022-08-20T12:20:45;7.32;;;1.42;;
60655;SDS011;46477;53.616;10.064;2022-08-20T12:23:11;4.05;;;1.30;;
60655;SDS011;46477;53.616;10.064;2022-08-20T12:25:36;4.13;;;1.25;;
60655;SDS011;46477;53.616;10.064;2022-08-20T12:28:02;5.75;;;1.55;;
60655;SDS011;46477;53.616;10.064;2022-08-20T12:30:29;5.35;;;1.23;;
60655;SDS011;46477;53.616;10.064;2022-08-20T12:32:56;4.80;;;1.55;;
60655;SDS011;46477;53.616;10.064;2022-08-20T12:35:22;4.13;;;1.17;;
60655;SDS011;46477;53.616;10.064;2022-08-20T12:37:48;4.03;;;1.10;;
60655;SDS011;46477;53.616;10.064;2022-08-20T12:40:14;4.68;;;1.08;;
60655;SDS011;46477;53.616;10.064;2022-08-20T12:42:42;3.90;;;1.23;;
60655;SDS011;46477;53.616;10.064;2022-08-20T12:45:07;2.55;;;0.80;;
60655;SDS011;46477;53.616;10.064;2022-08-20T12:47:34;2.70;;;0.90;;
60655;SDS011;46477;53.616;10.064;2022-08-20T12:50:06;5.68;;;1.20;;
60655;SDS011;46477;53.616;10.064;2022-08-20T12:52:42;4.70;;;0.82;;
60655;SDS011;46477;53.616;10.064;2022-08-20T12:55:09;3.75;;;1.10;;
60655;SDS011;46477;53.616;10.064;2022-08-20T12:57:39;4.10;;;1.10;;
60655;SDS011;46477;53.616;10.064;2022-08-20T13:00:11;4.22;;;1.27;;
60655;SDS011;46477;53.616;10.064;2022-08-20T13:02:37;4.97;;;1.48;;
60655;SDS011;46477;53.616;10.064;2022-08-20T13:05:03;2.65;;;0.90;;
60655;SDS011;46477;53.616;10.064;2022-08-20T13:07:30;5.43;;;1.20;;
60655;SDS011;46477;53.616;10.064;2022-08-20T13:09:55;3.20;;;0.90;;
60655;SDS011;46477;53.616;10.064;2022-08-20T13:12:22;8.38;;;1.40;;
60655;SDS011;46477;53.616;10.064;2022-08-20T13:14:47;3.33;;;0.90;;
60655;SDS011;46477;53.616;10.064;2022-08-20T13:17:14;3.35;;;1.00;;
60655;SDS011;46477;53.616;10.064;2022-08-20T13:19:41;2.88;;;0.98;;
60655;SDS011;46477;53.616;10.064;2022-08-20T13:22:09;4.10;;;1.00;;
60655;SDS011;46477;53.616;10.064;2022-08-20T13:24:34;4.10;;;1.30;;
60655;SDS011;46477;53.616;10.064;2022-08-20T13:27:06;5.78;;;1.20;;
60655;SDS011;46477;53.616;10.064;2022-08-20T13:29:34;5.43;;;1.20;;
60655;SDS011;46477;53.616;10.064;2022-08-20T13:32:00;4.32;;;0.88;;
60655;SDS011;46477;53.616;10.064;2022-08-20T13:34:26;5.38;;;1.08;;
60655;SDS011;46477;53.616;10.064;2022-08-20T13:36:51;4.53;;;1.30;;
60655;SDS011;46477;53.616;10.064;2022-08-20T13:39:19;5.82;;;1.17;;
60655;SDS011;46477;53.616;10.064;2022-08-20T13:41:45;5.85;;;1.08;;
60655;SDS011;46477;53.616;10.064;2022-08-20T13:44:10;3.13;;;1.00;;
60655;SDS011;46477;53.616;10.064;2022-08-20T13:46:36;4.85;;;1.35;;
60655;SDS011;46477;53.616;10.064;2022-08-20T13:49:01;4.22;;;0.90;;
60655;SDS011;46477;53.616;10.064;2022-08-20T13:51:26;5.55;;;1.27;;
60655;SDS011;46477;53.616;10.064;2022-08-20T13:53:52;2.67;;;0.77;;
60655;SDS011;46477;53.616;10.064;2022-08-20T13:56:17;4.47;;;1.10;;
60655;SDS011;46477;53.616;10.064;2022-08-20T13:58:42;2.47;;;0.75;;
60655;SDS011;46477;53.616;10.064;2022-08-20T14:01:08;4.45;;;1.00;;
60655;SDS011;46477;53.616;10.064;2022-08-20T14:03:33;5.47;;;1.40;;
60655;SDS011;46477;53.616;10.064;2022-08-20T14:05:59;2.45;;;0.70;;
60655;SDS011;46477;53.616;10.064;2022-08-20T14:08:26;3.67;;;1.00;;
60655;SDS011;46477;53.616;10.064;2022-08-20T14:10:51;5.55;;;1.23;;
60655;SDS011;46477;53.616;10.064;2022-08-20T14:13:18;5.68;;;0.90;;
60655;SDS011;46477;53.616;10.064;2022-08-20T14:15:45;4.40;;;1.40;;
60655;SDS011;46477;53.616;10.064;2022-08-20T14:18:10;4.55;;;0.80;;
60655;SDS011;46477;53.616;10.064;2022-08-20T14:20:39;2.35;;;0.80;;
60655;SDS011;46477;53.616;10.064;2022-08-20T14:23:06;6.07;;;1.23;;
60655;SDS011;46477;53.616;10.064;2022-08-20T14:25:32;2.35;;;1.13;;
60655;SDS011;46477;53.616;10.064;2022-08-20T14:27:58;4.45;;;1.10;;
60655;SDS011;46477;53.616;10.064;2022-08-20T14:30:34;2.95;;;0.85;;
60655;SDS011;46477;53.616;10.064;2022-08-20T14:32:59;4.05;;;0.70;;
60655;SDS011;46477;53.616;10.064;2022-08-20T14:35:25;2.40;;;0.63;;
60655;SDS011;46477;53.616;10.064;2022-08-20T14:37:51;3.72;;;0.98;;
60655;SDS011;46477;53.616;10.064;2022-08-20T14:40:18;3.90;;;1.33;;
60655;SDS011;46477;53.616;10.064;2022-08-20T14:42:46;4.93;;;1.33;;